createdAt,value
2017-05-01T00:00:46.378Z,7.58
2017-05-01T00:03:12.777Z,8.16
2017-05-01T00:05:39.114Z,8.16
2017-05-01T00:08:05.731Z,7.66
2017-05-01T00:10:32.085Z,8.12
2017-05-01T00:12:58.416Z,8.06
2017-05-01T00:15:24.763Z,7.62
2017-05-01T00:17:51.138Z,7.36
2017-05-01T00:20:17.462Z,7.40
2017-05-01T00:22:43.777Z,8.60
2017-05-01T00:25:10.097Z,7.76
2017-05-01T00:27:36.436Z,7.12
2017-05-01T00:30:02.930Z,8.68
2017-05-01T00:32:29.261Z,8.36
2017-05-01T00:34:55.619Z,7.42
2017-05-01T00:37:21.961Z,9.34
2017-05-01T00:39:48.593Z,8.46
2017-05-01T00:42:14.946Z,8.02
2017-05-01T00:44:41.293Z,8.20
2017-05-01T00:47:07.606Z,8.42
2017-05-01T00:49:34.024Z,8.08
2017-05-01T00:52:00.368Z,7.48
2017-05-01T00:54:26.724Z,9.14
2017-05-01T00:56:53.072Z,8.44
2017-05-01T00:59:19.394Z,8.30
2017-05-01T01:01:45.735Z,9.24
2017-05-01T01:04:12.073Z,9.76
2017-05-01T01:06:38.428Z,9.84
2017-05-01T01:09:11.922Z,9.22
2017-05-01T01:11:38.349Z,8.68
2017-05-01T01:14:04.708Z,9.62
2017-05-01T01:16:31.063Z,9.82
2017-05-01T01:18:57.502Z,8.66
2017-05-01T01:21:24.029Z,9.62
2017-05-01T01:23:50.448Z,8.92
2017-05-01T01:26:16.773Z,9.20
2017-05-01T01:28:43.405Z,9.80
2017-05-01T01:31:09.839Z,8.38
2017-05-01T01:33:37.007Z,10.06
2017-05-01T01:36:04.366Z,8.68
2017-05-01T01:38:31.548Z,9.06
2017-05-01T01:40:58.731Z,10.26
2017-05-01T01:43:25.215Z,8.94
2017-05-01T01:45:51.629Z,9.92
2017-05-01T01:48:18.057Z,9.70
2017-05-01T01:50:44.531Z,10.92
2017-05-01T01:53:10.909Z,10.36
2017-05-01T01:55:37.290Z,9.30
2017-05-01T01:58:03.659Z,9.74
2017-05-01T02:00:30.161Z,11.28
2017-05-01T02:02:56.561Z,9.50
2017-05-01T02:05:22.959Z,11.00
2017-05-01T02:07:49.362Z,10.38
2017-05-01T02:10:15.752Z,10.96
2017-05-01T02:12:42.169Z,11.14
2017-05-01T02:15:08.589Z,11.56
2017-05-01T02:17:35.070Z,11.46
2017-05-01T02:20:01.502Z,11.48
2017-05-01T02:22:30.018Z,12.00
2017-05-01T02:24:56.564Z,12.06
2017-05-01T02:27:22.996Z,13.00
2017-05-01T02:29:49.403Z,9.88
2017-05-01T02:32:15.920Z,10.64
2017-05-01T02:34:42.296Z,11.92
2017-05-01T02:37:08.701Z,11.40
2017-05-01T02:39:35.263Z,12.38
2017-05-01T02:42:01.657Z,12.40
2017-05-01T02:44:28.117Z,12.28
2017-05-01T02:46:54.544Z,13.18
2017-05-01T02:49:20.969Z,11.50
2017-05-01T02:51:47.375Z,11.28
2017-05-01T02:54:13.775Z,14.42
2017-05-01T02:56:40.185Z,12.20
2017-05-01T02:59:06.581Z,12.86
2017-05-01T03:01:32.973Z,13.18
2017-05-01T03:03:59.416Z,12.56
2017-05-01T03:06:25.995Z,11.60
2017-05-01T03:08:52.397Z,11.84
2017-05-01T03:11:18.803Z,12.58
2017-05-01T03:13:45.194Z,12.20
2017-05-01T03:16:11.679Z,12.62
2017-05-01T03:18:38.071Z,12.46
2017-05-01T03:21:04.471Z,10.94
2017-05-01T03:23:30.796Z,11.78
2017-05-01T03:25:57.140Z,11.50
2017-05-01T03:28:23.491Z,12.56
2017-05-01T03:30:49.839Z,11.72
2017-05-01T03:33:16.347Z,12.76
2017-05-01T03:35:42.698Z,12.76
2017-05-01T03:38:09.030Z,13.38
2017-05-01T03:40:35.360Z,16.54
2017-05-01T03:43:01.770Z,12.10
2017-05-01T03:45:28.104Z,14.34
2017-05-01T03:47:54.437Z,12.12
2017-05-01T03:50:20.788Z,13.18
2017-05-01T03:52:47.415Z,12.46
2017-05-01T03:55:13.758Z,13.20
2017-05-01T03:57:40.082Z,12.68
2017-05-01T04:00:06.438Z,12.36
2017-05-01T04:02:32.788Z,12.68
2017-05-01T04:04:59.108Z,13.30
2017-05-01T04:07:25.436Z,12.52
2017-05-01T04:09:51.789Z,13.78
2017-05-01T04:12:18.140Z,13.82
2017-05-01T04:14:44.613Z,14.34
2017-05-01T04:17:10.955Z,14.46
2017-05-01T04:19:37.280Z,14.16
2017-05-01T04:22:03.628Z,13.38
2017-05-01T04:24:29.954Z,12.52
2017-05-01T04:26:56.284Z,14.78
2017-05-01T04:29:22.804Z,14.20
2017-05-01T04:31:49.193Z,13.32
2017-05-01T04:34:15.558Z,14.16
2017-05-01T04:36:41.920Z,14.12
2017-05-01T04:39:09.158Z,14.84
2017-05-01T04:41:35.495Z,13.62
2017-05-01T04:44:01.834Z,13.64
2017-05-01T04:46:28.165Z,13.92
2017-05-01T04:48:54.533Z,13.42
2017-05-01T04:51:20.885Z,14.76
2017-05-01T04:53:47.229Z,14.24
2017-05-01T04:56:13.597Z,13.48
2017-05-01T04:58:39.936Z,16.70
2017-05-01T05:01:06.246Z,13.54
2017-05-01T05:03:32.609Z,14.30
2017-05-01T05:05:59.099Z,13.88
2017-05-01T05:08:25.418Z,13.18
2017-05-01T05:10:51.770Z,14.24
2017-05-01T05:13:18.095Z,14.28
2017-05-01T05:15:44.624Z,14.20
2017-05-01T05:18:10.968Z,14.70
2017-05-01T05:20:37.314Z,14.04
2017-05-01T05:23:03.664Z,14.50
2017-05-01T05:25:30.055Z,14.48
2017-05-01T05:27:56.426Z,15.16
2017-05-01T05:30:22.749Z,13.88
2017-05-01T05:32:49.098Z,13.06
2017-05-01T05:35:15.592Z,12.60
2017-05-01T05:37:41.925Z,19.66
2017-05-01T05:40:08.264Z,13.70
2017-05-01T05:42:34.638Z,14.94
2017-05-01T05:45:01.012Z,15.78
2017-05-01T05:47:27.359Z,15.54
2017-05-01T05:49:53.697Z,14.12
2017-05-01T05:52:20.029Z,14.04
2017-05-01T05:54:46.329Z,13.44
2017-05-01T05:57:13.867Z,14.44
2017-05-01T05:59:40.334Z,13.94
2017-05-01T06:02:06.677Z,14.56
2017-05-01T06:04:33.048Z,13.68
2017-05-01T06:06:59.402Z,15.50
2017-05-01T06:09:25.732Z,13.88
2017-05-01T06:11:52.105Z,15.04
2017-05-01T06:14:18.562Z,14.30
2017-05-01T06:16:44.874Z,14.02
2017-05-01T06:19:11.224Z,13.46
2017-05-01T06:21:37.564Z,14.62
2017-05-01T06:24:03.905Z,15.48
2017-05-01T06:26:30.226Z,13.48
2017-05-01T06:28:57.070Z,14.26
2017-05-01T06:31:23.452Z,14.78
2017-05-01T06:33:49.793Z,14.14
2017-05-01T06:36:16.127Z,14.56
2017-05-01T06:38:42.448Z,15.22
2017-05-01T06:41:08.812Z,14.64
2017-05-01T06:43:35.161Z,14.88
2017-05-01T06:46:01.533Z,14.84
2017-05-01T06:48:27.871Z,14.20
2017-05-01T06:50:54.185Z,12.42
2017-05-01T06:53:20.545Z,12.52
2017-05-01T06:55:46.898Z,11.96
2017-05-01T06:58:13.242Z,13.46
2017-05-01T07:00:39.586Z,9.66
2017-05-01T07:03:05.927Z,8.04
2017-05-01T07:05:32.266Z,6.72
2017-05-01T07:07:58.616Z,6.42
2017-05-01T07:10:24.969Z,7.28
2017-05-01T07:12:51.329Z,7.38
2017-05-01T07:15:17.802Z,7.68
2017-05-01T07:17:44.153Z,7.76
2017-05-01T07:20:10.492Z,8.88
2017-05-01T07:22:36.817Z,8.32
2017-05-01T07:25:03.289Z,7.80
2017-05-01T07:27:29.627Z,8.48
2017-05-01T07:29:55.972Z,8.22
2017-05-01T07:32:23.323Z,8.70
2017-05-01T07:34:49.669Z,8.64
2017-05-01T07:37:16.628Z,9.56
2017-05-01T07:39:42.974Z,9.06
2017-05-01T07:42:09.333Z,12.26
2017-05-01T07:44:35.675Z,11.56
2017-05-01T07:47:01.991Z,12.40
2017-05-01T07:49:28.329Z,10.14
2017-05-01T07:51:54.660Z,10.60
2017-05-01T07:54:20.997Z,10.24
2017-05-01T07:56:47.341Z,10.74
2017-05-01T07:59:13.703Z,7.94
2017-05-01T08:01:40.054Z,5.92
2017-05-01T08:04:06.392Z,5.58
2017-05-01T08:06:32.721Z,5.20
2017-05-01T08:08:59.035Z,10.04
2017-05-01T08:11:25.382Z,11.66
2017-05-01T08:13:51.743Z,3.86
2017-05-01T08:16:18.097Z,3.40
2017-05-01T08:18:44.438Z,5.36
2017-05-01T08:21:10.764Z,4.38
2017-05-01T08:23:37.108Z,3.08
2017-05-01T08:26:03.464Z,3.18
2017-05-01T08:28:29.921Z,2.22
2017-05-01T08:30:56.245Z,1.94
2017-05-01T08:33:22.557Z,2.08
2017-05-01T08:35:48.895Z,2.14
2017-05-01T08:38:15.421Z,2.50
2017-05-01T08:40:41.752Z,2.80
2017-05-01T08:43:08.108Z,1.30
2017-05-01T08:45:34.468Z,2.20
2017-05-01T08:48:00.875Z,1.40
2017-05-01T08:50:27.248Z,1.32
2017-05-01T08:52:53.593Z,1.66
2017-05-01T08:55:19.936Z,1.28
2017-05-01T08:57:46.303Z,1.20
2017-05-01T09:00:12.656Z,2.58
2017-05-01T09:02:38.993Z,1.50
2017-05-01T09:05:05.312Z,2.02
2017-05-01T09:07:31.655Z,1.32
2017-05-01T09:09:58.150Z,1.72
2017-05-01T09:12:24.508Z,3.32
2017-05-01T09:14:50.838Z,1.26
2017-05-01T09:17:17.185Z,1.28
2017-05-01T09:19:43.538Z,2.60
2017-05-01T09:22:09.956Z,2.20
2017-05-01T09:24:36.445Z,1.82
2017-05-01T09:27:02.787Z,1.72
2017-05-01T09:29:29.153Z,2.72
2017-05-01T09:31:55.503Z,1.84
2017-05-01T09:34:22.349Z,1.80
2017-05-01T09:36:48.707Z,3.24
2017-05-01T09:39:15.100Z,3.22
2017-05-01T09:41:41.445Z,1.46
2017-05-01T09:44:07.837Z,2.30
2017-05-01T09:46:34.197Z,2.96
2017-05-01T09:49:00.511Z,1.14
2017-05-01T09:51:26.895Z,1.38
2017-05-01T09:53:53.226Z,1.66
2017-05-01T09:56:19.572Z,2.54
2017-05-01T09:58:45.906Z,1.74
2017-05-01T10:01:12.370Z,3.84
2017-05-01T10:03:38.706Z,1.62
2017-05-01T10:06:05.086Z,2.76
2017-05-01T10:08:31.423Z,5.76
2017-05-01T10:10:57.865Z,2.90
2017-05-01T10:13:24.200Z,1.78
2017-05-01T10:15:50.523Z,2.36
2017-05-01T10:18:16.891Z,3.32
2017-05-01T10:20:43.419Z,3.48
2017-05-01T10:23:09.760Z,2.48
2017-05-01T10:25:36.106Z,2.26
2017-05-01T10:28:02.437Z,2.36
2017-05-01T10:30:28.871Z,1.58
2017-05-01T10:32:55.210Z,1.98
2017-05-01T10:35:21.569Z,2.38
2017-05-01T10:37:47.920Z,5.40
2017-05-01T10:40:14.283Z,3.68
2017-05-01T10:42:40.612Z,2.06
2017-05-01T10:45:06.965Z,1.78
2017-05-01T10:47:33.292Z,5.24
2017-05-01T10:49:59.649Z,1.64
2017-05-01T10:52:26.014Z,2.60
2017-05-01T10:54:52.369Z,1.70
2017-05-01T10:57:18.721Z,2.24
2017-05-01T10:59:45.065Z,2.18
2017-05-01T11:02:11.404Z,2.04
2017-05-01T11:04:37.731Z,2.00
2017-05-01T11:07:05.265Z,3.06
2017-05-01T11:09:31.623Z,3.54
2017-05-01T11:11:57.970Z,2.58
2017-05-01T11:14:24.452Z,2.72
2017-05-01T11:16:50.803Z,1.40
2017-05-01T11:19:17.141Z,2.42
2017-05-01T11:21:43.475Z,1.74
2017-05-01T11:24:09.934Z,1.74
2017-05-01T11:26:36.258Z,3.22
2017-05-01T11:29:02.642Z,4.54
2017-05-01T11:31:28.976Z,4.44
2017-05-01T11:33:55.466Z,4.84
2017-05-01T11:36:21.792Z,3.48
2017-05-01T11:38:48.138Z,3.48
2017-05-01T11:41:14.470Z,3.40
2017-05-01T11:43:41.025Z,2.82
2017-05-01T11:46:07.385Z,3.28
2017-05-01T11:48:33.749Z,4.88
2017-05-01T11:51:00.092Z,4.42
2017-05-01T11:53:26.449Z,2.90
2017-05-01T11:55:52.795Z,4.08
2017-05-01T11:58:19.141Z,4.14
2017-05-01T12:00:45.511Z,4.66
2017-05-01T12:03:11.882Z,3.20
2017-05-01T12:05:38.245Z,4.18
2017-05-01T12:08:04.635Z,7.74
2017-05-01T12:10:31.217Z,3.90
2017-05-01T12:12:57.574Z,3.86
2017-05-01T12:15:23.906Z,3.38
2017-05-01T12:17:50.261Z,4.00
2017-05-01T12:20:16.596Z,6.00
2017-05-01T12:22:42.946Z,3.02
2017-05-01T12:25:09.328Z,4.40
2017-05-01T12:27:35.701Z,3.30
2017-05-01T12:30:02.206Z,3.96
2017-05-01T12:32:28.558Z,3.84
2017-05-01T12:34:54.909Z,4.20
2017-05-01T12:37:21.256Z,4.44
2017-05-01T12:39:47.658Z,6.50
2017-05-01T12:42:14.008Z,6.94
2017-05-01T12:44:40.383Z,4.66
2017-05-01T12:47:06.744Z,6.68
2017-05-01T12:49:33.101Z,6.76
2017-05-01T12:51:59.422Z,7.12
2017-05-01T12:54:25.780Z,13.28
2017-05-01T12:56:52.124Z,3.94
2017-05-01T12:59:18.500Z,4.18
2017-05-01T13:01:44.873Z,7.28
2017-05-01T13:04:12.307Z,5.12
2017-05-01T13:06:38.894Z,4.56
2017-05-01T13:09:05.239Z,4.86
2017-05-01T13:11:31.590Z,5.74
2017-05-01T13:13:57.984Z,7.02
2017-05-01T13:16:24.337Z,5.56
2017-05-01T13:18:50.808Z,5.34
2017-05-01T13:21:17.694Z,7.90
2017-05-01T13:23:44.058Z,4.14
2017-05-01T13:26:10.416Z,5.88
2017-05-01T13:28:36.780Z,5.70
2017-05-01T13:31:03.139Z,4.86
2017-05-01T13:33:29.491Z,5.90
2017-05-01T13:35:55.858Z,4.48
2017-05-01T13:38:22.200Z,3.48
2017-05-01T13:40:48.539Z,5.12
2017-05-01T13:43:14.879Z,3.72
2017-05-01T13:45:41.290Z,3.84
2017-05-01T13:48:13.876Z,4.08
2017-05-01T13:50:41.737Z,5.72
2017-05-01T13:53:08.222Z,3.56
2017-05-01T13:55:34.626Z,4.06
2017-05-01T13:58:01.016Z,4.06
2017-05-01T14:00:27.399Z,3.80
2017-05-01T14:02:54.117Z,5.08
2017-05-01T14:05:21.080Z,6.02
2017-05-01T14:07:47.731Z,5.02
2017-05-01T14:10:17.037Z,6.02
2017-05-01T14:12:43.382Z,5.30
2017-05-01T14:15:09.885Z,4.28
2017-05-01T14:17:37.006Z,5.58
2017-05-01T14:20:03.419Z,5.72
2017-05-01T14:22:30.004Z,4.40
2017-05-01T14:24:56.363Z,7.00
2017-05-01T14:27:23.529Z,5.34
2017-05-01T14:29:49.926Z,4.20
2017-05-01T14:32:16.282Z,4.20
2017-05-01T14:34:42.850Z,4.54
2017-05-01T14:37:09.209Z,3.66
2017-05-01T14:39:35.548Z,4.94
2017-05-01T14:42:02.136Z,3.64
2017-05-01T14:44:28.540Z,4.32
2017-05-01T14:46:57.536Z,3.70
2017-05-01T14:49:24.081Z,6.04
2017-05-01T14:51:50.415Z,4.72
2017-05-01T14:54:16.773Z,3.96
2017-05-01T14:56:44.039Z,5.72
2017-05-01T14:59:11.032Z,4.68
2017-05-01T15:01:38.290Z,3.68
2017-05-01T15:04:05.395Z,5.68
2017-05-01T15:06:32.016Z,8.62
2017-05-01T15:08:58.645Z,6.90
2017-05-01T15:11:25.638Z,5.14
2017-05-01T15:13:52.040Z,4.88
2017-05-01T15:16:18.990Z,8.24
2017-05-01T15:18:45.389Z,4.78
2017-05-01T15:21:12.539Z,5.62
2017-05-01T15:23:38.952Z,4.22
2017-05-01T15:26:05.300Z,4.80
2017-05-01T15:28:31.674Z,3.62
2017-05-01T15:30:58.167Z,4.10
2017-05-01T15:33:24.547Z,5.84
2017-05-01T15:35:50.919Z,3.68
2017-05-01T15:38:17.809Z,32.26
2017-05-01T15:40:44.174Z,5.34
2017-05-01T15:43:11.241Z,4.92
2017-05-01T15:45:37.688Z,5.90
2017-05-01T15:48:04.123Z,4.38
2017-05-01T15:50:30.493Z,3.50
2017-05-01T15:52:56.847Z,3.66
2017-05-01T15:55:26.533Z,2.78
2017-05-01T15:57:56.668Z,2.58
2017-05-01T16:16:41.518Z,4.80
2017-05-01T16:19:08.086Z,3.32
2017-05-01T16:21:34.632Z,5.48
2017-05-01T16:24:00.978Z,3.58
2017-05-01T16:26:27.310Z,4.74
2017-05-01T16:28:53.664Z,5.30
2017-05-01T16:31:20.129Z,4.48
2017-05-01T16:33:46.504Z,4.54
2017-05-01T16:36:12.844Z,3.74
2017-05-01T16:38:39.222Z,4.10
2017-05-01T16:41:05.607Z,3.30
2017-05-01T16:43:32.010Z,4.14
2017-05-01T16:45:58.332Z,5.06
2017-05-01T16:48:24.695Z,6.04
2017-05-01T16:50:51.072Z,3.82
2017-05-01T16:53:17.437Z,5.80
2017-05-01T16:55:43.810Z,4.18
2017-05-01T16:58:10.327Z,5.08
2017-05-01T17:00:36.694Z,5.74
2017-05-01T17:03:03.088Z,6.10
2017-05-01T17:05:29.487Z,6.24
2017-05-01T17:07:55.894Z,4.58
2017-05-01T17:10:22.380Z,4.64
2017-05-01T17:12:48.783Z,6.14
2017-05-01T17:15:15.152Z,6.16
2017-05-01T17:17:48.625Z,5.02
2017-05-01T17:20:15.003Z,4.88
2017-05-01T17:22:41.398Z,4.46
2017-05-01T17:25:07.758Z,5.14
2017-05-01T17:27:34.106Z,7.12
2017-05-01T17:30:00.522Z,5.44
2017-05-01T17:32:26.971Z,4.34
2017-05-01T17:34:53.335Z,4.08
2017-05-01T17:37:20.213Z,6.58
2017-05-01T17:39:46.769Z,4.22
2017-05-01T17:42:13.136Z,5.52
2017-05-01T17:44:39.507Z,7.66
2017-05-01T17:47:06.900Z,5.30
2017-05-01T17:49:34.391Z,4.58
2017-05-01T17:52:01.671Z,6.16
2017-05-01T17:54:28.129Z,6.80
2017-05-01T17:56:54.673Z,6.14
2017-05-01T17:59:21.133Z,5.58
2017-05-01T18:01:47.798Z,4.88
2017-05-01T18:04:14.175Z,4.92
2017-05-01T18:06:40.543Z,5.72
2017-05-01T18:09:07.088Z,7.96
2017-05-01T18:11:33.571Z,6.02
2017-05-01T18:13:59.937Z,7.44
2017-05-01T18:16:26.373Z,6.88
2017-05-01T18:18:52.805Z,7.42
2017-05-01T18:21:20.089Z,7.90
2017-05-01T18:23:47.541Z,6.18
2017-05-01T18:26:15.459Z,6.12
2017-05-01T18:28:42.541Z,7.08
2017-05-01T18:31:09.412Z,8.72
2017-05-01T18:33:36.309Z,6.22
2017-05-01T18:36:03.618Z,8.24
2017-05-01T18:38:31.358Z,6.24
2017-05-01T18:40:59.389Z,6.42
2017-05-01T18:43:27.066Z,6.94
2017-05-01T18:45:55.034Z,7.08
2017-05-01T18:48:21.914Z,7.76
2017-05-01T18:50:49.583Z,9.54
2017-05-01T18:53:17.419Z,9.94
2017-05-01T18:55:44.306Z,7.92
2017-05-01T18:58:13.337Z,7.20
2017-05-01T19:00:41.437Z,8.92
2017-05-01T19:03:09.564Z,8.18
2017-05-01T19:05:37.664Z,6.58
2017-05-01T19:08:05.400Z,6.94
2017-05-01T19:10:33.279Z,7.16
2017-05-01T19:13:00.845Z,7.44
2017-05-01T19:15:28.825Z,6.62
2017-05-01T19:17:56.032Z,7.32
2017-05-01T19:20:23.916Z,6.68
2017-05-01T19:22:51.948Z,8.62
2017-05-01T19:25:20.112Z,7.84
2017-05-01T19:27:48.067Z,7.54
2017-05-01T19:30:16.230Z,6.78
2017-05-01T19:32:44.268Z,7.28
2017-05-01T19:35:12.332Z,6.66
2017-05-01T19:37:40.312Z,6.52
2017-05-01T19:40:08.127Z,6.26
2017-05-01T19:42:36.008Z,6.44
2017-05-01T19:45:04.316Z,12.06
2017-05-01T19:47:32.343Z,7.84
2017-05-01T19:50:00.043Z,7.12
2017-05-01T19:52:28.024Z,10.36
2017-05-01T19:54:55.303Z,7.62
2017-05-01T19:57:23.530Z,9.10
2017-05-01T19:59:51.131Z,8.98
2017-05-01T20:02:18.463Z,8.74
2017-05-01T20:04:44.917Z,7.22
2017-05-01T20:07:11.645Z,9.40
2017-05-01T20:09:38.057Z,8.62
2017-05-01T20:12:04.607Z,10.80
2017-05-01T20:14:31.272Z,8.32
2017-05-01T20:16:58.033Z,9.34
2017-05-01T20:19:24.552Z,10.32
2017-05-01T20:21:50.917Z,9.64
2017-05-01T20:24:17.247Z,9.30
2017-05-01T20:26:43.683Z,9.42
2017-05-01T20:29:10.236Z,10.14
2017-05-01T20:31:36.714Z,13.80
2017-05-01T20:34:03.093Z,11.78
2017-05-01T20:36:29.476Z,12.04
2017-05-01T20:38:55.865Z,10.50
2017-05-01T20:41:22.210Z,12.58
2017-05-01T20:43:48.574Z,11.38
2017-05-01T20:46:15.466Z,10.94
2017-05-01T20:48:42.000Z,10.78
2017-05-01T20:51:08.407Z,10.32
2017-05-01T20:53:34.852Z,10.40
2017-05-01T20:56:01.957Z,10.60
2017-05-01T20:58:28.382Z,12.08
2017-05-01T21:00:54.769Z,10.58
2017-05-01T21:03:21.113Z,12.72
2017-05-01T21:05:47.455Z,12.14
2017-05-01T21:08:13.811Z,12.94
2017-05-01T21:10:40.212Z,14.96
2017-05-01T21:13:06.565Z,12.66
2017-05-01T21:15:32.886Z,12.50
2017-05-01T21:17:59.259Z,12.44
2017-05-01T21:20:25.784Z,10.80
2017-05-01T21:22:52.150Z,11.00
2017-05-01T21:25:18.502Z,13.22
2017-05-01T21:27:45.114Z,14.14
2017-05-01T21:30:11.586Z,16.84
2017-05-01T21:32:38.028Z,20.34
2017-05-01T21:35:04.359Z,20.36
2017-05-01T21:37:30.862Z,18.30
2017-05-01T21:39:57.510Z,21.54
2017-05-01T21:42:23.846Z,19.92
2017-05-01T21:44:50.201Z,18.08
2017-05-01T21:47:16.655Z,19.52
2017-05-01T21:49:43.013Z,17.86
2017-05-01T21:52:09.767Z,14.44
2017-05-01T21:54:36.365Z,15.64
2017-05-01T21:57:02.709Z,15.44
2017-05-01T21:59:29.067Z,18.10
2017-05-01T22:01:55.447Z,18.62
2017-05-01T22:04:21.902Z,17.64
2017-05-01T22:06:48.246Z,18.18
2017-05-01T22:09:14.633Z,15.90
2017-05-01T22:11:41.012Z,22.00
2017-05-01T22:14:07.343Z,18.20
2017-05-01T22:16:33.693Z,18.20
2017-05-01T22:19:00.121Z,20.88
2017-05-01T22:21:26.526Z,21.40
2017-05-01T22:23:52.923Z,19.22
2017-05-01T22:26:19.300Z,19.00
2017-05-01T22:28:45.798Z,21.46
2017-05-01T22:31:12.448Z,16.18
2017-05-01T22:33:38.797Z,19.28
2017-05-01T22:36:05.116Z,18.40
2017-05-01T22:38:31.463Z,18.12
2017-05-01T22:40:57.815Z,18.90
2017-05-01T22:43:24.132Z,20.12
2017-05-01T22:45:50.477Z,21.92
2017-05-01T22:48:16.860Z,20.44
2017-05-01T22:50:43.190Z,23.88
2017-05-01T22:53:09.566Z,25.04
2017-05-01T22:55:35.970Z,25.14
2017-05-01T22:58:02.549Z,26.88
2017-05-01T23:00:28.897Z,23.22
2017-05-01T23:02:55.234Z,21.78
2017-05-01T23:05:21.609Z,28.16
2017-05-01T23:07:48.630Z,26.14
2017-05-01T23:10:15.314Z,24.74
2017-05-01T23:12:42.887Z,23.72
2017-05-01T23:15:09.265Z,22.02
2017-05-01T23:17:35.622Z,21.78
2017-05-01T23:20:01.981Z,21.90
2017-05-01T23:22:28.317Z,24.64
2017-05-01T23:24:54.694Z,24.12
2017-05-01T23:27:21.059Z,21.06
2017-05-01T23:29:47.382Z,23.06
2017-05-01T23:32:13.756Z,22.42
2017-05-01T23:34:40.121Z,21.06
2017-05-01T23:37:06.484Z,22.00
2017-05-01T23:39:32.962Z,23.34
2017-05-01T23:41:59.318Z,24.54
2017-05-01T23:44:25.655Z,32.20
2017-05-01T23:46:51.981Z,21.76
2017-05-01T23:49:18.604Z,23.46
2017-05-01T23:51:44.964Z,23.42
2017-05-01T23:54:11.320Z,22.68
2017-05-01T23:56:37.663Z,25.34
2017-05-01T23:59:04.042Z,25.02
